createdAt,value
2018-01-11T00:00:47.431Z,-0.69
2018-01-11T00:01:47.412Z,-0.66
2018-01-11T00:02:47.393Z,-0.7
2018-01-11T00:03:47.932Z,-0.59
2018-01-11T00:04:47.358Z,-0.66
2018-01-11T00:05:47.612Z,-0.61
2018-01-11T00:06:47.326Z,-0.67
2018-01-11T00:07:47.581Z,-0.64
2018-01-11T00:08:47.304Z,-0.64
2018-01-11T00:09:47.813Z,-0.76
2018-01-11T00:10:47.530Z,-0.74
2018-01-11T00:11:47.230Z,-0.66
2018-01-11T00:12:47.780Z,-0.69
2018-01-11T00:13:47.204Z,-0.72
2018-01-11T00:14:47.446Z,-0.7
2018-01-11T00:15:47.425Z,-0.67
2018-01-11T00:16:47.422Z,-0.67
2018-01-11T00:17:47.660Z,-0.61
2018-01-11T00:18:47.106Z,-0.7
2018-01-11T00:19:47.373Z,-0.66
2018-01-11T00:20:47.336Z,-0.67
2018-01-11T00:21:47.589Z,-0.7
2018-01-11T00:22:47.029Z,-0.67
2018-01-11T00:23:47.292Z,-0.66
2018-01-11T00:24:46.990Z,-0.62
2018-01-11T00:25:46.973Z,-0.69
2018-01-11T00:26:47.524Z,-0.74
2018-01-11T00:27:47.223Z,-0.67
2018-01-11T00:28:47.190Z,-0.7
2018-01-11T00:29:47.192Z,-0.69
2018-01-11T00:30:47.442Z,-0.66
2018-01-11T00:31:47.134Z,-0.66
2018-01-11T00:32:46.844Z,-0.66
2018-01-11T00:33:47.367Z,-0.64
2018-01-11T00:34:46.810Z,-0.69
2018-01-11T00:35:47.090Z,-0.69
2018-01-11T00:36:46.772Z,-0.72
2018-01-11T00:37:47.022Z,-0.69
2018-01-11T00:38:47.277Z,-0.7
2018-01-11T00:39:46.728Z,-0.69
2018-01-11T00:40:46.970Z,-0.67
2018-01-11T00:41:47.240Z,-0.67
2018-01-11T00:42:46.655Z,-0.66
2018-01-11T00:43:46.909Z,-0.64
2018-01-11T00:44:46.628Z,-0.69
2018-01-11T00:45:46.876Z,-0.7
2018-01-11T00:46:46.854Z,-0.66
2018-01-11T00:47:46.838Z,-0.72
2018-01-11T00:48:46.564Z,-0.62
2018-01-11T00:49:46.804Z,-0.64
2018-01-11T00:50:46.512Z,-0.64
2018-01-11T00:51:46.493Z,-0.69
2018-01-11T00:52:46.474Z,-0.69
2018-01-11T00:53:46.461Z,-0.66
2018-01-11T00:54:46.986Z,-0.66
2018-01-11T00:55:46.421Z,-0.64
2018-01-11T00:56:46.682Z,-0.66
2018-01-11T00:57:46.712Z,-0.64
2018-01-11T00:58:46.364Z,-0.58
2018-01-11T00:59:46.627Z,-0.69
2018-01-11T01:00:46.870Z,-0.69
2018-01-11T01:01:46.312Z,-0.73
2018-01-11T01:02:46.309Z,-0.73
2018-01-11T01:03:46.816Z,-0.72
2018-01-11T01:04:46.524Z,-0.66
2018-01-11T01:05:46.239Z,-0.69
2018-01-11T01:06:46.497Z,-0.77
2018-01-11T01:07:46.201Z,-0.74
2018-01-11T01:08:46.200Z,-0.89
2018-01-11T01:09:46.724Z,-0.79
2018-01-11T01:10:46.433Z,-0.92
2018-01-11T01:11:46.125Z,-0.82
2018-01-11T01:12:46.382Z,-0.85
2018-01-11T01:13:46.090Z,-0.85
2018-01-11T01:14:46.337Z,-0.89
2018-01-11T01:15:46.322Z,-0.8
2018-01-11T01:16:46.035Z,-0.92
2018-01-11T01:17:46.013Z,-0.91
2018-01-11T01:18:46.552Z,-0.93
2018-01-11T01:19:46.246Z,-0.92
2018-01-11T01:20:46.246Z,-0.96
2018-01-11T01:21:46.484Z,-0.89
2018-01-11T01:22:46.469Z,-0.85
2018-01-11T01:23:46.442Z,-0.91
2018-01-11T01:24:46.156Z,-0.87
2018-01-11T01:25:46.417Z,-0.85
2018-01-11T01:26:46.121Z,-0.93
2018-01-11T01:27:45.829Z,-0.96
2018-01-11T01:28:45.807Z,-0.87
2018-01-11T01:29:46.084Z,-0.89
2018-01-11T01:30:46.049Z,-0.8
2018-01-11T01:31:45.767Z,-0.87
2018-01-11T01:32:45.734Z,-0.89
2018-01-11T01:33:46.265Z,-0.82
2018-01-11T01:34:45.700Z,-0.82
2018-01-11T01:35:45.680Z,-0.89
2018-01-11T01:36:45.695Z,-0.91
2018-01-11T01:37:45.659Z,-0.89
2018-01-11T01:38:46.173Z,-0.98
2018-01-11T01:39:45.605Z,-1.03
2018-01-11T01:40:46.132Z,-0.95
2018-01-11T01:41:45.570Z,-0.95
2018-01-11T01:42:45.561Z,-0.89
2018-01-11T01:43:45.802Z,-0.95
2018-01-11T01:44:45.531Z,-0.82
2018-01-11T01:45:45.502Z,-0.89
2018-01-11T01:46:45.477Z,-0.92
2018-01-11T01:47:46.002Z,-0.82
2018-01-11T01:48:45.464Z,-0.77
2018-01-11T01:49:45.416Z,-0.8
2018-01-11T01:50:45.405Z,-0.82
2018-01-11T01:51:45.380Z,-0.76
2018-01-11T01:52:45.642Z,-0.79
2018-01-11T01:53:45.343Z,-0.85
2018-01-11T01:54:45.327Z,-0.89
2018-01-11T01:55:45.308Z,-0.77
2018-01-11T01:56:45.837Z,-0.8
2018-01-11T01:57:45.546Z,-0.8
2018-01-11T01:58:45.274Z,-0.77
2018-01-11T01:59:45.506Z,-0.69
2018-01-11T02:00:45.492Z,-0.69
2018-01-11T02:01:45.478Z,-0.55
2018-01-11T02:02:45.725Z,-0.58
2018-01-11T02:03:45.715Z,-0.51
2018-01-11T02:04:45.412Z,-0.46
2018-01-11T02:05:45.689Z,-0.51
2018-01-11T02:06:45.104Z,-0.49
2018-01-11T02:07:45.090Z,-0.55
2018-01-11T02:08:45.341Z,-0.55
2018-01-11T02:09:45.047Z,-0.52
2018-01-11T02:10:45.300Z,-0.58
2018-01-11T02:11:45.021Z,-0.48
2018-01-11T02:12:44.990Z,-0.51
2018-01-11T02:13:45.249Z,-0.46
2018-01-11T02:14:44.954Z,-0.46
2018-01-11T02:15:45.217Z,-0.56
2018-01-11T02:16:44.914Z,-0.51
2018-01-11T02:17:45.441Z,-0.55
2018-01-11T02:18:45.432Z,-0.58
2018-01-11T02:19:44.865Z,-0.58
2018-01-11T02:20:45.111Z,-0.49
2018-01-11T02:21:44.877Z,-0.55
2018-01-11T02:22:45.376Z,-0.54
2018-01-11T02:23:44.789Z,-0.56
2018-01-11T02:24:45.045Z,-0.46
2018-01-11T02:25:45.309Z,-0.55
2018-01-11T02:26:44.733Z,-0.45
2018-01-11T02:27:45.262Z,-0.46
2018-01-11T02:28:44.976Z,-0.51
2018-01-11T02:29:44.681Z,-0.51
2018-01-11T02:30:44.935Z,-0.52
2018-01-11T02:31:45.189Z,-0.59
2018-01-11T02:32:44.914Z,-0.64
2018-01-11T02:33:44.879Z,-0.73
2018-01-11T02:34:44.613Z,-0.66
2018-01-11T02:35:44.567Z,-0.62
2018-01-11T02:36:44.829Z,-0.58
2018-01-11T02:37:44.809Z,-0.58
2018-01-11T02:38:44.512Z,-0.64
2018-01-11T02:39:44.766Z,-0.52
2018-01-11T02:40:44.476Z,-0.51
2018-01-11T02:41:44.750Z,-0.55
2018-01-11T02:42:44.447Z,-0.55
2018-01-11T02:43:44.701Z,-0.56
2018-01-11T02:45:16.743Z,-0.54
2018-01-11T02:45:44.925Z,-0.51
2018-01-11T02:46:44.638Z,-0.59
2018-01-11T02:47:44.346Z,-0.62
2018-01-11T02:48:44.602Z,-0.62
2018-01-11T02:49:44.306Z,-0.7
2018-01-11T02:50:44.568Z,-0.64
2018-01-11T02:51:44.542Z,-0.66
2018-01-11T02:52:44.525Z,-0.64
2018-01-11T02:53:44.535Z,-0.64
2018-01-11T02:54:44.232Z,-0.61
2018-01-11T02:55:44.421Z,-0.72
2018-01-11T02:56:44.232Z,-0.69
2018-01-11T02:57:44.162Z,-0.69
2018-01-11T02:58:44.700Z,-0.67
2018-01-11T02:59:44.421Z,-0.69
2018-01-11T03:00:44.113Z,-0.64
2018-01-11T03:01:44.091Z,-0.69
2018-01-11T03:02:44.361Z,-0.64
2018-01-11T03:03:44.366Z,-0.72
2018-01-11T03:04:44.752Z,-0.7
2018-01-11T03:05:44.013Z,-0.8
2018-01-11T03:06:43.998Z,-0.76
2018-01-11T03:07:44.269Z,-0.87
2018-01-11T03:08:44.510Z,-0.89
2018-01-11T03:09:43.964Z,-0.82
2018-01-11T03:10:43.920Z,-0.84
2018-01-11T03:11:44.177Z,-0.85
2018-01-11T03:12:44.433Z,-0.85
2018-01-11T03:13:43.865Z,-0.82
2018-01-11T03:14:44.139Z,-0.84
2018-01-11T03:15:44.100Z,-0.82
2018-01-11T03:16:43.810Z,-0.82
2018-01-11T03:17:44.360Z,-0.85
2018-01-11T03:18:44.085Z,-0.89
2018-01-11T03:19:44.025Z,-0.85
2018-01-11T03:20:43.767Z,-0.84
2018-01-11T03:21:44.004Z,-0.89
2018-01-11T03:22:44.279Z,-0.85
2018-01-11T03:23:43.681Z,-0.89
2018-01-11T03:24:43.946Z,-0.91
2018-01-11T03:25:43.912Z,-0.96
2018-01-11T03:26:43.638Z,-1.01
2018-01-11T03:27:43.604Z,-0.95
2018-01-11T03:28:43.602Z,-0.98
2018-01-11T03:29:43.568Z,-0.93
2018-01-11T03:30:43.826Z,-0.96
2018-01-11T03:31:43.532Z,-0.95
2018-01-11T03:32:43.521Z,-0.96
2018-01-11T03:33:43.492Z,-0.87
2018-01-11T03:34:43.751Z,-0.96
2018-01-11T03:35:43.457Z,-0.92
2018-01-11T03:36:43.457Z,-0.95
2018-01-11T03:37:43.418Z,-0.92
2018-01-11T03:38:43.974Z,-0.98
2018-01-11T03:39:43.925Z,-1.03
2018-01-11T03:40:43.649Z,-0.95
2018-01-11T03:41:43.343Z,-0.96
2018-01-11T03:42:43.595Z,-0.95
2018-01-11T03:43:43.308Z,-0.92
2018-01-11T03:44:43.290Z,-0.95
2018-01-11T03:45:43.816Z,-0.84
2018-01-11T03:46:43.529Z,-0.91
2018-01-11T03:47:43.508Z,-0.91
2018-01-11T03:48:43.222Z,-0.85
2018-01-11T03:49:43.474Z,-0.85
2018-01-11T03:50:43.460Z,-0.84
2018-01-11T03:51:43.428Z,-0.82
2018-01-11T03:52:43.415Z,-0.82
2018-01-11T03:53:43.153Z,-0.79
2018-01-11T03:54:43.388Z,-0.8
2018-01-11T03:55:43.088Z,-0.72
2018-01-11T03:56:43.361Z,-0.84
2018-01-11T03:57:43.318Z,-0.69
2018-01-11T03:58:43.299Z,-0.85
2018-01-11T03:59:43.604Z,-0.77
2018-01-11T04:00:42.996Z,-0.74
2018-01-11T04:01:42.972Z,-0.8
2018-01-11T04:02:43.224Z,-0.8
2018-01-11T04:03:42.935Z,-0.8
2018-01-11T04:04:42.918Z,-0.85
2018-01-11T04:05:43.170Z,-0.85
2018-01-11T04:06:42.880Z,-0.85
2018-01-11T04:07:42.862Z,-0.89
2018-01-11T04:08:43.114Z,-0.92
2018-01-11T04:09:43.095Z,-0.89
2018-01-11T04:10:42.830Z,-0.96
2018-01-11T04:11:43.060Z,-0.89
2018-01-11T04:12:42.782Z,-0.96
2018-01-11T04:13:43.293Z,-0.96
2018-01-11T04:14:43.024Z,-1.01
2018-01-11T04:15:42.981Z,-0.95
2018-01-11T04:16:42.693Z,-1.04
2018-01-11T04:17:42.674Z,-0.99
2018-01-11T04:18:42.667Z,-1.06
2018-01-11T04:19:42.922Z,-1.03
2018-01-11T04:20:42.890Z,-0.99
2018-01-11T04:21:42.610Z,-1.04
2018-01-11T04:22:42.606Z,-1.06
2018-01-11T04:23:42.842Z,-1.07
2018-01-11T04:24:42.542Z,-1.07
2018-01-11T04:25:43.093Z,-1.16
2018-01-11T04:26:42.520Z,-1.01
2018-01-11T04:27:42.818Z,-1.07
2018-01-11T04:28:42.493Z,-1.11
2018-01-11T04:29:42.480Z,-1.11
2018-01-11T04:30:42.435Z,-1.14
2018-01-11T04:31:42.410Z,-1.25
2018-01-11T04:32:42.702Z,-1.24
2018-01-11T04:33:42.394Z,-1.14
2018-01-11T04:34:42.628Z,-1.25
2018-01-11T04:35:42.634Z,-1.21
2018-01-11T04:36:42.603Z,-1.24
2018-01-11T04:37:42.602Z,-1.25
2018-01-11T04:38:42.577Z,-1.24
2018-01-11T04:39:42.264Z,-1.22
2018-01-11T04:40:42.258Z,-1.19
2018-01-11T04:41:42.515Z,-1.24
2018-01-11T04:42:42.486Z,-1.22
2018-01-11T04:43:42.394Z,-1.28
2018-01-11T04:44:42.446Z,-1.17
2018-01-11T04:45:42.709Z,-1.27
2018-01-11T04:46:42.402Z,-1.17
2018-01-11T04:47:42.128Z,-1.22
2018-01-11T04:48:42.653Z,-1.21
2018-01-11T04:49:42.408Z,-1.25
2018-01-11T04:50:42.066Z,-1.24
2018-01-11T04:51:42.040Z,-1.24
2018-01-11T04:52:42.030Z,-1.24
2018-01-11T04:53:42.276Z,-1.22
2018-01-11T04:54:41.985Z,-1.19
2018-01-11T04:55:42.239Z,-1.19
2018-01-11T04:56:42.218Z,-1.27
2018-01-11T04:57:41.933Z,-1.28
2018-01-11T04:58:41.907Z,-1.3
2018-01-11T04:59:41.906Z,-1.28
2018-01-11T05:00:41.876Z,-1.27
2018-01-11T05:01:42.123Z,-1.34
2018-01-11T05:02:41.958Z,-1.25
2018-01-11T05:03:42.091Z,-1.27
2018-01-11T05:04:42.072Z,-1.37
2018-01-11T05:05:42.049Z,-1.25
2018-01-11T05:06:42.298Z,-1.31
2018-01-11T05:07:42.288Z,-1.35
2018-01-11T05:08:41.996Z,-1.32
2018-01-11T05:09:41.984Z,-1.4
2018-01-11T05:10:41.971Z,-1.34
2018-01-11T05:11:41.942Z,-1.37
2018-01-11T05:12:41.648Z,-1.32
2018-01-11T05:13:41.920Z,-1.31
2018-01-11T05:14:42.162Z,-1.45
2018-01-11T05:15:42.134Z,-1.34
2018-01-11T05:16:42.182Z,-1.35
2018-01-11T05:17:41.820Z,-1.37
2018-01-11T05:18:41.847Z,-1.4
2018-01-11T05:19:41.789Z,-1.37
2018-01-11T05:20:41.774Z,-1.34
2018-01-11T05:21:42.037Z,-1.34
2018-01-11T05:22:41.995Z,-1.34
2018-01-11T05:23:41.706Z,-1.28
2018-01-11T05:24:41.706Z,-1.34
2018-01-11T05:25:41.398Z,-1.35
2018-01-11T05:26:41.652Z,-1.34
2018-01-11T05:27:41.927Z,-1.38
2018-01-11T05:28:41.897Z,-1.34
2018-01-11T05:29:41.325Z,-1.38
2018-01-11T05:30:41.578Z,-1.38
2018-01-11T05:31:41.556Z,-1.37
2018-01-11T05:32:41.286Z,-1.43
2018-01-11T05:33:41.522Z,-1.35
2018-01-11T05:34:41.232Z,-1.38
2018-01-11T05:35:41.214Z,-1.38
2018-01-11T05:36:41.464Z,-1.34
2018-01-11T05:37:41.446Z,-1.45
2018-01-11T05:38:41.182Z,-1.38
2018-01-11T05:39:41.419Z,-1.45
2018-01-11T05:40:41.399Z,-1.49
2018-01-11T05:41:41.099Z,-1.43
2018-01-11T05:42:41.351Z,-1.49
2018-01-11T05:43:41.351Z,-1.45
2018-01-11T05:44:41.040Z,-1.43
2018-01-11T05:45:41.565Z,-1.5
2018-01-11T05:46:41.559Z,-1.48
2018-01-11T05:47:41.544Z,-1.45
2018-01-11T05:48:41.239Z,-1.43
2018-01-11T05:49:41.242Z,-1.45
2018-01-11T05:50:41.201Z,-1.5
2018-01-11T05:51:40.912Z,-1.49
2018-01-11T05:52:40.893Z,-1.52
2018-01-11T05:53:41.143Z,-1.55
2018-01-11T05:54:40.851Z,-1.58
2018-01-11T05:55:41.119Z,-1.58
2018-01-11T05:56:41.361Z,-1.58
2018-01-11T05:57:41.072Z,-1.52
2018-01-11T05:58:41.317Z,-1.55
2018-01-11T05:59:41.032Z,-1.5
2018-01-11T06:00:40.737Z,-1.52
2018-01-11T06:01:41.014Z,-1.45
2018-01-11T06:02:40.708Z,-1.5
2018-01-11T06:03:40.958Z,-1.48
2018-01-11T06:04:40.938Z,-1.45
2018-01-11T06:05:40.914Z,-1.45
2018-01-11T06:06:41.179Z,-1.48
2018-01-11T06:07:40.881Z,-1.52
2018-01-11T06:08:40.589Z,-1.43
2018-01-11T06:09:41.114Z,-1.43
2018-01-11T06:10:40.553Z,-1.46
2018-01-11T06:11:41.077Z,-1.43
2018-01-11T06:12:40.802Z,-1.43
2018-01-11T06:13:41.043Z,-1.46
2018-01-11T06:14:40.750Z,-1.43
2018-01-11T06:15:40.730Z,-1.46
2018-01-11T06:16:40.716Z,-1.55
2018-01-11T06:17:40.689Z,-1.48
2018-01-11T06:18:40.672Z,-1.5
2018-01-11T06:19:40.381Z,-1.53
2018-01-11T06:20:40.364Z,-1.48
2018-01-11T06:21:40.352Z,-1.4
2018-01-11T06:22:40.323Z,-1.46
2018-01-11T06:23:40.576Z,-1.43
2018-01-11T06:24:40.565Z,-1.42
2018-01-11T06:25:40.267Z,-1.46
2018-01-11T06:26:40.522Z,-1.42
2018-01-11T06:27:40.243Z,-1.49
2018-01-11T06:28:40.247Z,-1.48
2018-01-11T06:29:40.728Z,-1.42
2018-01-11T06:30:40.446Z,-1.46
2018-01-11T06:31:40.148Z,-1.42
2018-01-11T06:32:40.673Z,-1.45
2018-01-11T06:33:40.115Z,-1.35
2018-01-11T06:34:40.098Z,-1.46
2018-01-11T06:35:40.349Z,-1.38
2018-01-11T06:36:40.059Z,-1.42
2018-01-11T06:37:40.310Z,-1.43
2018-01-11T06:38:40.025Z,-1.45
2018-01-11T06:39:40.294Z,-1.45
2018-01-11T06:40:40.588Z,-1.37
2018-01-11T06:41:40.237Z,-1.38
2018-01-11T06:42:40.213Z,-1.42
2018-01-11T06:43:40.192Z,-1.37
2018-01-11T06:44:40.453Z,-1.37
2018-01-11T06:45:40.156Z,-1.37
2018-01-11T06:46:39.887Z,-1.34
2018-01-11T06:47:40.121Z,-1.31
2018-01-11T06:48:40.101Z,-1.32
2018-01-11T06:49:40.086Z,-1.35
2018-01-11T06:50:39.810Z,-1.27
2018-01-11T06:51:40.043Z,-1.28
2018-01-11T06:52:40.025Z,-1.25
2018-01-11T06:53:40.003Z,-1.25
2018-01-11T06:54:39.722Z,-1.25
2018-01-11T06:55:39.700Z,-1.25
2018-01-11T06:56:39.947Z,-1.27
2018-01-11T06:57:40.205Z,-1.19
2018-01-11T06:58:39.647Z,-1.22
2018-01-11T06:59:39.619Z,-1.21
2018-01-11T07:00:39.875Z,-1.24
2018-01-11T07:01:40.142Z,-1.22
2018-01-11T07:02:39.576Z,-1.24
2018-01-11T07:03:39.813Z,-1.24
2018-01-11T07:04:39.823Z,-1.21
2018-01-11T07:05:39.781Z,-1.28
2018-01-11T07:06:39.777Z,-1.25
2018-01-11T07:07:39.467Z,-1.37
2018-01-11T07:08:39.450Z,-1.42
2018-01-11T07:09:39.972Z,-1.35
2018-01-11T07:10:39.678Z,-1.35
2018-01-11T07:11:39.663Z,-1.34
2018-01-11T07:12:39.373Z,-1.42
2018-01-11T07:13:39.626Z,-1.46
2018-01-11T07:14:39.887Z,-1.42
2018-01-11T07:15:39.611Z,-1.49
2018-01-11T07:16:39.294Z,-1.42
2018-01-11T07:17:39.550Z,-1.46
2018-01-11T07:18:39.259Z,-1.43
2018-01-11T07:19:39.786Z,-1.35
2018-01-11T07:20:39.502Z,-1.31
2018-01-11T07:21:39.215Z,-1.37
2018-01-11T07:22:39.454Z,-1.25
2018-01-11T07:23:39.162Z,-1.3
2018-01-11T07:24:39.417Z,-1.13
2018-01-11T07:25:39.676Z,-1.17
2018-01-11T07:26:39.679Z,-1.11
2018-01-11T07:27:39.358Z,-1.09
2018-01-11T07:28:39.348Z,-0.91
2018-01-11T07:29:39.329Z,-0.92
2018-01-11T07:30:39.300Z,-0.95
2018-01-11T07:31:39.014Z,-0.82
2018-01-11T07:32:38.991Z,-0.85
2018-01-11T07:33:39.251Z,-0.8
2018-01-11T07:34:38.954Z,-0.92
2018-01-11T07:35:39.228Z,-0.76
2018-01-11T07:36:39.190Z,-0.85
2018-01-11T07:37:38.902Z,-0.7
2018-01-11T07:38:39.156Z,-0.77
2018-01-11T07:39:39.132Z,-0.67
2018-01-11T07:40:38.839Z,-0.64
2018-01-11T07:41:38.872Z,-0.69
2018-01-11T07:42:39.093Z,-0.69
2018-01-11T07:43:38.787Z,-0.64
2018-01-11T07:44:39.308Z,-0.64
2018-01-11T07:45:39.314Z,-0.66
2018-01-11T07:46:39.275Z,-0.49
2018-01-11T07:47:38.982Z,-0.49
2018-01-11T07:48:38.967Z,-0.52
2018-01-11T07:49:38.945Z,-0.38
2018-01-11T07:50:38.943Z,-0.36
2018-01-11T07:51:39.140Z,-0.25
2018-01-11T07:52:39.161Z,-0.2
2018-01-11T07:53:39.137Z,-0.13
2018-01-11T07:54:38.858Z,-0.16
2018-01-11T07:55:38.839Z,-0.12
2018-01-11T07:56:38.814Z,-0.13
2018-01-11T07:57:38.520Z,-0.04
2018-01-11T07:58:38.503Z,-0.04
2018-01-11T07:59:38.760Z,0.03
2018-01-11T08:00:38.758Z,0.02
2018-01-11T08:01:38.721Z,0.05
2018-01-11T08:02:38.427Z,0.09
2018-01-11T08:03:38.682Z,0.13
2018-01-11T08:04:38.665Z,0.17
2018-01-11T08:05:38.374Z,0.08
2018-01-11T08:06:38.629Z,0.03
2018-01-11T08:07:38.335Z,0.1
2018-01-11T08:08:38.314Z,0.17
2018-01-11T08:09:38.592Z,0.19
2018-01-11T08:10:38.551Z,0.17
2018-01-11T08:11:38.537Z,0.19
2018-01-11T08:12:38.250Z,0.27
2018-01-11T08:13:38.497Z,0.21
2018-01-11T08:14:38.481Z,0.37
2018-01-11T08:15:38.472Z,0.42
2018-01-11T08:16:38.952Z,0.41
2018-01-11T08:17:38.150Z,0.41
2018-01-11T08:18:38.406Z,0.56
2018-01-11T08:19:38.667Z,0.56
2018-01-11T08:20:38.378Z,0.53
2018-01-11T08:21:38.351Z,0.6
2018-01-11T08:22:38.607Z,0.53
2018-01-11T08:23:38.051Z,0.69
2018-01-11T08:24:38.026Z,0.69
2018-01-11T08:25:38.574Z,0.75
2018-01-11T08:26:37.986Z,0.82
2018-01-11T08:27:38.244Z,0.81
2018-01-11T08:28:37.953Z,0.81
2018-01-11T08:29:37.950Z,0.86
2018-01-11T08:30:38.198Z,0.93
2018-01-11T08:31:38.436Z,0.97
2018-01-11T08:32:37.900Z,1.02
2018-01-11T08:33:38.412Z,1.11
2018-01-11T08:34:38.391Z,1.04
2018-01-11T08:35:37.828Z,1.17
2018-01-11T08:36:37.809Z,1.21
2018-01-11T08:37:37.795Z,1.17
2018-01-11T08:38:38.062Z,1.32
2018-01-11T08:39:38.046Z,1.39
2018-01-11T08:40:38.028Z,1.36
2018-01-11T08:41:37.724Z,1.54
2018-01-11T08:42:37.996Z,1.48
2018-01-11T08:43:37.956Z,1.51
2018-01-11T08:44:38.236Z,1.65
2018-01-11T08:45:38.197Z,1.75
2018-01-11T08:46:37.635Z,1.82
2018-01-11T08:47:37.915Z,1.86
2018-01-11T08:48:37.871Z,1.83
2018-01-11T08:49:37.585Z,1.97
2018-01-11T08:50:37.568Z,2.04
2018-01-11T08:51:37.822Z,2.12
2018-01-11T08:52:38.076Z,2.09
2018-01-11T08:53:37.800Z,2.11
2018-01-11T08:54:37.499Z,2.15
2018-01-11T08:55:37.493Z,2.22
2018-01-11T08:56:37.736Z,2.16
2018-01-11T08:57:37.727Z,2.31
2018-01-11T08:58:37.442Z,2.29
2018-01-11T08:59:37.417Z,2.31
2018-01-11T09:00:37.688Z,2.31
2018-01-11T09:01:37.665Z,2.38
2018-01-11T09:02:37.638Z,2.4
2018-01-11T09:03:37.634Z,2.47
2018-01-11T09:04:37.337Z,2.51
2018-01-11T09:05:37.312Z,2.48
2018-01-11T09:06:37.296Z,2.36
2018-01-11T09:07:37.279Z,2.48
2018-01-11T09:08:37.265Z,2.44
2018-01-11T09:09:37.792Z,2.4
2018-01-11T09:10:37.229Z,2.45
2018-01-11T09:11:37.214Z,2.38
2018-01-11T09:12:37.195Z,2.45
2018-01-11T09:13:37.458Z,2.42
2018-01-11T09:14:37.435Z,2.44
2018-01-11T09:15:37.144Z,2.49
2018-01-11T09:16:37.127Z,2.49
2018-01-11T09:17:37.386Z,2.51
2018-01-11T09:18:37.371Z,2.47
2018-01-11T09:19:37.355Z,2.48
2018-01-11T09:20:37.354Z,2.49
2018-01-11T09:21:37.048Z,2.49
2018-01-11T09:22:37.311Z,2.51
2018-01-11T09:23:37.290Z,2.59
2018-01-11T09:24:37.264Z,2.58
2018-01-11T09:25:37.272Z,2.58
2018-01-11T09:26:37.252Z,2.54
2018-01-11T09:27:36.953Z,2.52
2018-01-11T09:28:37.488Z,2.49
2018-01-11T09:29:37.191Z,2.54
2018-01-11T09:30:36.904Z,2.55
2018-01-11T09:31:37.437Z,2.63
2018-01-11T09:32:37.160Z,2.66
2018-01-11T09:33:37.122Z,2.62
2018-01-11T09:34:37.114Z,2.63
2018-01-11T09:35:36.816Z,2.65
2018-01-11T09:36:37.078Z,2.59
2018-01-11T09:37:37.060Z,2.69
2018-01-11T09:38:37.381Z,2.83
2018-01-11T09:39:37.042Z,2.73
2018-01-11T09:40:36.741Z,2.8
2018-01-11T09:41:36.998Z,2.85
2018-01-11T09:42:36.705Z,2.95
2018-01-11T09:43:36.693Z,2.93
2018-01-11T09:44:36.670Z,3.03
2018-01-11T09:45:36.951Z,3.13
2018-01-11T09:46:37.189Z,3.08
2018-01-11T09:47:36.625Z,3.14
2018-01-11T09:48:36.608Z,3.2
2018-01-11T09:49:36.600Z,3.23
2018-01-11T09:50:36.858Z,3.29
2018-01-11T09:51:36.566Z,3.35
2018-01-11T09:52:36.819Z,3.35
2018-01-11T09:53:36.528Z,3.42
2018-01-11T09:54:36.787Z,3.49
2018-01-11T09:55:36.515Z,3.43
2018-01-11T09:56:36.491Z,3.51
2018-01-11T09:57:36.467Z,3.45
2018-01-11T09:58:36.997Z,3.53
2018-01-11T09:59:36.709Z,3.54
2018-01-11T10:00:36.969Z,3.54
2018-01-11T10:01:36.402Z,3.54
2018-01-11T10:02:36.429Z,3.56
2018-01-11T10:03:36.379Z,3.56
2018-01-11T10:04:36.902Z,3.56
2018-01-11T10:05:36.624Z,3.63
2018-01-11T10:06:36.345Z,3.57
2018-01-11T10:07:36.583Z,3.61
2018-01-11T10:08:36.564Z,3.58
2018-01-11T10:09:36.295Z,3.67
2018-01-11T10:10:36.319Z,3.75
2018-01-11T10:11:36.817Z,3.67
2018-01-11T10:12:36.505Z,3.74
2018-01-11T10:13:36.217Z,3.75
2018-01-11T10:14:36.200Z,3.69
2018-01-11T10:15:36.185Z,3.78
2018-01-11T10:16:36.464Z,3.72
2018-01-11T10:17:37.034Z,3.82
2018-01-11T10:18:36.428Z,3.85
2018-01-11T10:19:36.398Z,3.84
2018-01-11T10:20:36.390Z,3.79
2018-01-11T10:21:36.673Z,3.89
2018-01-11T10:22:36.080Z,3.93
2018-01-11T10:23:36.356Z,3.96
2018-01-11T10:24:36.324Z,3.81
2018-01-11T10:25:36.032Z,3.92
2018-01-11T10:26:36.293Z,3.94
2018-01-11T10:27:36.276Z,3.97
2018-01-11T10:28:36.533Z,3.9
2018-01-11T10:29:35.971Z,4.04
2018-01-11T10:30:36.523Z,4.07
2018-01-11T10:31:36.221Z,4.08
2018-01-11T10:32:35.930Z,4.07
2018-01-11T10:33:36.523Z,3.99
2018-01-11T10:34:36.204Z,4.1
2018-01-11T10:35:35.883Z,4.1
2018-01-11T10:36:36.194Z,4.11
2018-01-11T10:37:35.852Z,4.17
2018-01-11T10:38:35.835Z,4.2
2018-01-11T10:39:35.815Z,4.22
2018-01-11T10:40:36.096Z,4.3
2018-01-11T10:41:35.790Z,4.33
2018-01-11T10:42:35.775Z,4.39
2018-01-11T10:43:35.759Z,4.36
2018-01-11T10:44:36.013Z,4.36
2018-01-11T10:45:36.002Z,4.35
2018-01-11T10:46:35.711Z,4.48
2018-01-11T10:47:35.979Z,4.48
2018-01-11T10:48:35.955Z,4.46
2018-01-11T10:49:35.941Z,4.61
2018-01-11T10:50:35.663Z,4.69
2018-01-11T10:51:35.909Z,4.66
2018-01-11T10:52:35.640Z,4.85
2018-01-11T10:53:36.158Z,4.9
2018-01-11T10:54:35.594Z,4.92
2018-01-11T10:55:36.127Z,5.06
2018-01-11T10:56:35.861Z,5.1
2018-01-11T10:57:35.551Z,5.18
2018-01-11T10:58:35.813Z,5.18
2018-01-11T10:59:35.794Z,5.23
2018-01-11T11:00:35.781Z,5.26
2018-01-11T11:01:35.494Z,5.36
2018-01-11T11:02:36.024Z,5.41
2018-01-11T11:03:35.462Z,5.41
2018-01-11T11:04:35.448Z,5.39
2018-01-11T11:05:35.978Z,5.55
2018-01-11T11:06:35.977Z,5.55
2018-01-11T11:07:35.406Z,5.54
2018-01-11T11:08:35.665Z,5.54
2018-01-11T11:09:35.648Z,5.49
2018-01-11T11:10:35.639Z,5.62
2018-01-11T11:11:35.918Z,5.63
2018-01-11T11:12:35.628Z,5.67
2018-01-11T11:13:35.664Z,5.72
2018-01-11T11:14:35.577Z,5.75
2018-01-11T11:15:35.849Z,5.81
2018-01-11T11:16:35.282Z,5.75
2018-01-11T11:17:35.264Z,5.88
2018-01-11T11:18:35.527Z,5.91
2018-01-11T11:19:35.783Z,5.99
2018-01-11T11:20:35.492Z,5.96
2018-01-11T11:21:35.499Z,6.07
2018-01-11T11:22:35.208Z,6.09
2018-01-11T11:23:35.178Z,6.18
2018-01-11T11:24:35.169Z,6.2
2018-01-11T11:25:35.428Z,6.09
2018-01-11T11:26:35.495Z,6.09
2018-01-11T11:27:35.396Z,6.1
2018-01-11T11:28:35.115Z,6.1
2018-01-11T11:29:35.663Z,6.13
2018-01-11T11:30:35.083Z,6.15
2018-01-11T11:31:35.070Z,6.03
2018-01-11T11:32:35.331Z,6.1
2018-01-11T11:33:47.783Z,6.03
2018-01-11T11:34:35.030Z,6.09
2018-01-11T11:35:35.289Z,5.99
2018-01-11T11:36:35.546Z,6.05
2018-01-11T11:37:35.260Z,5.95
2018-01-11T11:38:34.990Z,5.99
2018-01-11T11:39:34.962Z,5.96
2018-01-11T11:40:35.255Z,5.92
2018-01-11T11:41:34.985Z,5.95
2018-01-11T11:42:35.466Z,5.89
2018-01-11T11:43:35.180Z,5.85
2018-01-11T11:44:34.896Z,5.87
2018-01-11T11:45:34.880Z,5.89
2018-01-11T11:46:35.416Z,5.91
2018-01-11T11:47:35.402Z,5.88
2018-01-11T11:48:34.843Z,5.91
2018-01-11T11:49:34.827Z,5.99
2018-01-11T11:50:35.084Z,5.98
2018-01-11T11:51:35.342Z,5.85
2018-01-11T11:52:35.071Z,5.91
2018-01-11T11:53:34.772Z,6
2018-01-11T11:54:35.322Z,6.05
2018-01-11T11:55:35.018Z,5.99
2018-01-11T11:56:34.730Z,5.99
2018-01-11T11:57:35.261Z,6.05
2018-01-11T11:58:34.703Z,6.18
2018-01-11T11:59:34.982Z,6.1
2018-01-11T12:00:34.967Z,6.24
2018-01-11T12:01:34.665Z,6.28
2018-01-11T12:02:34.921Z,6.36
2018-01-11T12:03:34.909Z,6.37
2018-01-11T12:04:34.624Z,6.39
2018-01-11T12:05:34.884Z,6.4
2018-01-11T12:06:34.868Z,6.49
2018-01-11T12:07:34.881Z,6.47
2018-01-11T12:08:34.570Z,6.47
2018-01-11T12:09:34.827Z,6.47
2018-01-11T12:10:34.815Z,6.43
2018-01-11T12:11:34.802Z,6.43
2018-01-11T12:12:34.800Z,6.47
2018-01-11T12:13:34.798Z,6.43
2018-01-11T12:14:34.770Z,6.49
2018-01-11T12:15:34.767Z,6.44
2018-01-11T12:16:35.105Z,6.39
2018-01-11T12:17:34.721Z,6.34
2018-01-11T12:18:34.706Z,6.37
2018-01-11T12:19:34.424Z,6.34
2018-01-11T12:20:34.432Z,6.25
2018-01-11T12:21:34.941Z,6.36
2018-01-11T12:22:34.657Z,6.24
2018-01-11T12:23:34.381Z,6.24
2018-01-11T12:24:34.910Z,6.33
2018-01-11T12:25:34.624Z,6.33
2018-01-11T12:26:34.936Z,6.37
2018-01-11T12:27:34.611Z,6.34
2018-01-11T12:28:34.578Z,6.33
2018-01-11T12:29:34.290Z,6.36
2018-01-11T12:30:34.549Z,6.36
2018-01-11T12:31:34.538Z,6.21
2018-01-11T12:32:34.522Z,6.31
2018-01-11T12:33:34.508Z,6.31
2018-01-11T12:34:34.497Z,6.31
2018-01-11T12:35:34.213Z,6.25
2018-01-11T12:36:34.485Z,6.26
2018-01-11T12:37:34.458Z,6.26
2018-01-11T12:38:34.512Z,6.28
2018-01-11T12:39:34.175Z,6.28
2018-01-11T12:40:34.417Z,6.31
2018-01-11T12:41:34.150Z,6.21
2018-01-11T12:42:34.121Z,6.33
2018-01-11T12:43:34.651Z,6.28
2018-01-11T12:44:34.372Z,6.21
2018-01-11T12:45:34.079Z,6.28
2018-01-11T12:46:34.338Z,6.2
2018-01-11T12:47:34.058Z,6.24
2018-01-11T12:48:34.599Z,6.2
2018-01-11T12:49:34.299Z,6.17
2018-01-11T12:50:34.337Z,6.25
2018-01-11T12:51:34.269Z,6.21
2018-01-11T12:52:33.985Z,6.2
2018-01-11T12:53:33.973Z,6.17
2018-01-11T12:54:34.280Z,6.14
2018-01-11T12:55:33.949Z,6.1
2018-01-11T12:56:33.932Z,6.15
2018-01-11T12:57:34.206Z,6.15
2018-01-11T12:58:33.906Z,6.13
2018-01-11T12:59:34.436Z,6.18
2018-01-11T13:00:33.881Z,6.18
2018-01-11T13:01:34.163Z,6.13
2018-01-11T13:02:33.852Z,6.13
2018-01-11T13:03:34.115Z,6.14
2018-01-11T13:04:34.100Z,6.21